sensor_id;sensor_type;location;lat;lon;timestamp;temperature;humidity
2024;DHT22;1016;48.770;9.154;2022-10-16T00:00:28;17.40;99.90
2024;DHT22;1016;48.770;9.154;2022-10-16T00:02:53;17.40;99.90
2024;DHT22;1016;48.770;9.154;2022-10-16T00:05:19;17.40;99.90
2024;DHT22;1016;48.770;9.154;2022-10-16T00:07:44;17.40;99.90
2024;DHT22;1016;48.770;9.154;2022-10-16T00:10:10;17.40;99.90
2024;DHT22;1016;48.770;9.154;2022-10-16T00:12:35;17.40;99.90
2024;DHT22;1016;48.770;9.154;2022-10-16T00:15:01;17.40;99.90
2024;DHT22;1016;48.770;9.154;2022-10-16T00:17:26;17.30;99.90
2024;DHT22;1016;48.770;9.154;2022-10-16T00:19:52;17.30;99.90
2024;DHT22;1016;48.770;9.154;2022-10-16T00:22:17;17.30;99.90
2024;DHT22;1016;48.770;9.154;2022-10-16T00:24:43;17.40;99.90
2024;DHT22;1016;48.770;9.154;2022-10-16T00:27:08;17.40;99.90
2024;DHT22;1016;48.770;9.154;2022-10-16T00:29:34;17.30;99.90
2024;DHT22;1016;48.770;9.154;2022-10-16T00:31:59;17.30;99.90
2024;DHT22;1016;48.770;9.154;2022-10-16T00:34:24;17.40;99.90
2024;DHT22;1016;48.770;9.154;2022-10-16T00:36:50;17.40;99.90
2024;DHT22;1016;48.770;9.154;2022-10-16T00:39:15;17.40;99.90
2024;DHT22;1016;48.770;9.154;2022-10-16T00:41:41;17.40;99.90
2024;DHT22;1016;48.770;9.154;2022-10-16T00:47:12;17.40;99.90
2024;DHT22;1016;48.770;9.154;2022-10-16T00:49:39;17.40;99.90
2024;DHT22;1016;48.770;9.154;2022-10-16T00:52:05;17.40;99.90
2024;DHT22;1016;48.770;9.154;2022-10-16T00:54:32;17.50;99.90
2024;DHT22;1016;48.770;9.154;2022-10-16T00:57:01;17.50;99.90
2024;DHT22;1016;48.770;9.154;2022-10-16T00:59:30;17.50;99.90
2024;DHT22;1016;48.770;9.154;2022-10-16T01:01:57;17.50;99.90
2024;DHT22;1016;48.770;9.154;2022-10-16T01:04:24;17.40;99.90
2024;DHT22;1016;48.770;9.154;2022-10-16T01:10:04;17.30;99.90
2024;DHT22;1016;48.770;9.154;2022-10-16T01:13:04;17.40;99.90
2024;DHT22;1016;48.770;9.154;2022-10-16T01:15:37;17.40;99.90
2024;DHT22;1016;48.770;9.154;2022-10-16T01:18:11;17.40;99.90
2024;DHT22;1016;48.770;9.154;2022-10-16T01:21:05;17.40;99.90
2024;DHT22;1016;48.770;9.154;2022-10-16T01:28:56;17.50;99.90
2024;DHT22;1016;48.770;9.154;2022-10-16T01:31:27;17.50;99.90
2024;DHT22;1016;48.770;9.154;2022-10-16T01:34:00;17.50;99.90
2024;DHT22;1016;48.770;9.154;2022-10-16T01:36:57;17.50;99.90
2024;DHT22;1016;48.770;9.154;2022-10-16T01:39:30;17.50;99.90
2024;DHT22;1016;48.770;9.154;2022-10-16T01:42:28;17.50;99.90
2024;DHT22;1016;48.770;9.154;2022-10-16T01:44:56;17.50;99.90
2024;DHT22;1016;48.770;9.154;2022-10-16T01:47:25;17.50;99.90
2024;DHT22;1016;48.770;9.154;2022-10-16T01:49:53;17.60;99.90
2024;DHT22;1016;48.770;9.154;2022-10-16T01:52:23;17.50;99.90
2024;DHT22;1016;48.770;9.154;2022-10-16T01:54:53;17.60;99.90
2024;DHT22;1016;48.770;9.154;2022-10-16T01:57:20;17.60;99.90
2024;DHT22;1016;48.770;9.154;2022-10-16T01:59:50;17.60;99.90
2024;DHT22;1016;48.770;9.154;2022-10-16T02:02:19;17.50;99.90
2024;DHT22;1016;48.770;9.154;2022-10-16T02:04:49;17.60;99.90
2024;DHT22;1016;48.770;9.154;2022-10-16T02:07:17;17.60;99.90
2024;DHT22;1016;48.770;9.154;2022-10-16T02:09:42;17.60;99.90
2024;DHT22;1016;48.770;9.154;2022-10-16T02:14:40;17.60;99.90
2024;DHT22;1016;48.770;9.154;2022-10-16T02:17:12;17.60;99.90
2024;DHT22;1016;48.770;9.154;2022-10-16T02:19:37;17.50;99.90
2024;DHT22;1016;48.770;9.154;2022-10-16T02:22:04;17.50;99.90
2024;DHT22;1016;48.770;9.154;2022-10-16T02:24:42;17.50;99.90
2024;DHT22;1016;48.770;9.154;2022-10-16T02:27:23;17.50;99.90
2024;DHT22;1016;48.770;9.154;2022-10-16T02:29:55;17.50;99.90
2024;DHT22;1016;48.770;9.154;2022-10-16T02:32:25;17.50;99.90
2024;DHT22;1016;48.770;9.154;2022-10-16T02:34:52;17.50;99.90
2024;DHT22;1016;48.770;9.154;2022-10-16T02:37:19;17.50;99.90
2024;DHT22;1016;48.770;9.154;2022-10-16T02:39:44;17.50;99.90
2024;DHT22;1016;48.770;9.154;2022-10-16T02:42:12;17.50;99.90
2024;DHT22;1016;48.770;9.154;2022-10-16T02:44:38;17.50;99.90
2024;DHT22;1016;48.770;9.154;2022-10-16T02:47:04;17.60;99.90
2024;DHT22;1016;48.770;9.154;2022-10-16T02:49:29;17.50;99.90
2024;DHT22;1016;48.770;9.154;2022-10-16T02:51:55;17.50;99.90
2024;DHT22;1016;48.770;9.154;2022-10-16T02:54:20;17.50;99.90
2024;DHT22;1016;48.770;9.154;2022-10-16T02:56:46;17.50;99.90
2024;DHT22;1016;48.770;9.154;2022-10-16T02:59:11;17.50;99.90
2024;DHT22;1016;48.770;9.154;2022-10-16T03:01:37;17.50;99.90
2024;DHT22;1016;48.770;9.154;2022-10-16T03:04:02;17.60;99.90
2024;DHT22;1016;48.770;9.154;2022-10-16T03:06:28;17.60;99.90
2024;DHT22;1016;48.770;9.154;2022-10-16T03:08:53;17.60;99.90
2024;DHT22;1016;48.770;9.154;2022-10-16T03:11:19;17.60;99.90
2024;DHT22;1016;48.770;9.154;2022-10-16T03:13:44;17.60;99.90
2024;DHT22;1016;48.770;9.154;2022-10-16T03:16:10;17.60;99.90
2024;DHT22;1016;48.770;9.154;2022-10-16T03:18:35;17.60;99.90
2024;DHT22;1016;48.770;9.154;2022-10-16T03:21:01;17.60;99.90
2024;DHT22;1016;48.770;9.154;2022-10-16T03:23:26;17.60;99.90
2024;DHT22;1016;48.770;9.154;2022-10-16T03:25:52;17.70;99.90
2024;DHT22;1016;48.770;9.154;2022-10-16T03:28:17;17.60;99.90
2024;DHT22;1016;48.770;9.154;2022-10-16T03:30:43;17.60;99.90
2024;DHT22;1016;48.770;9.154;2022-10-16T03:33:09;17.60;99.90
2024;DHT22;1016;48.770;9.154;2022-10-16T03:35:34;17.60;99.90
2024;DHT22;1016;48.770;9.154;2022-10-16T03:38:00;17.60;99.90
2024;DHT22;1016;48.770;9.154;2022-10-16T03:40:26;17.60;99.90
2024;DHT22;1016;48.770;9.154;2022-10-16T03:42:52;17.60;99.90
2024;DHT22;1016;48.770;9.154;2022-10-16T03:45:19;17.60;99.90
2024;DHT22;1016;48.770;9.154;2022-10-16T03:47:45;17.60;99.90
2024;DHT22;1016;48.770;9.154;2022-10-16T03:50:10;17.70;99.90
2024;DHT22;1016;48.770;9.154;2022-10-16T03:52:36;17.70;99.90
2024;DHT22;1016;48.770;9.154;2022-10-16T03:55:01;17.60;99.90
2024;DHT22;1016;48.770;9.154;2022-10-16T03:57:27;17.50;99.90
2024;DHT22;1016;48.770;9.154;2022-10-16T03:59:52;17.60;99.90
2024;DHT22;1016;48.770;9.154;2022-10-16T04:02:18;17.50;99.90
2024;DHT22;1016;48.770;9.154;2022-10-16T04:04:43;17.50;99.90
2024;DHT22;1016;48.770;9.154;2022-10-16T04:07:09;17.50;99.90
2024;DHT22;1016;48.770;9.154;2022-10-16T04:09:34;17.50;99.90
2024;DHT22;1016;48.770;9.154;2022-10-16T04:12:00;17.50;99.90
2024;DHT22;1016;48.770;9.154;2022-10-16T04:14:25;17.60;99.90
2024;DHT22;1016;48.770;9.154;2022-10-16T04:16:51;17.60;99.90
2024;DHT22;1016;48.770;9.154;2022-10-16T04:19:16;17.60;99.90
2024;DHT22;1016;48.770;9.154;2022-10-16T04:21:42;17.60;99.90
2024;DHT22;1016;48.770;9.154;2022-10-16T04:24:07;17.60;99.90
2024;DHT22;1016;48.770;9.154;2022-10-16T04:26:33;17.60;99.90
2024;DHT22;1016;48.770;9.154;2022-10-16T04:28:58;17.50;99.90
2024;DHT22;1016;48.770;9.154;2022-10-16T04:31:24;17.50;99.90
2024;DHT22;1016;48.770;9.154;2022-10-16T04:33:49;17.50;99.90
2024;DHT22;1016;48.770;9.154;2022-10-16T04:36:15;17.40;99.90
2024;DHT22;1016;48.770;9.154;2022-10-16T04:38:40;17.50;99.90
2024;DHT22;1016;48.770;9.154;2022-10-16T04:41:07;17.50;99.90
2024;DHT22;1016;48.770;9.154;2022-10-16T04:43:33;17.50;99.90
2024;DHT22;1016;48.770;9.154;2022-10-16T04:45:59;17.50;99.90
2024;DHT22;1016;48.770;9.154;2022-10-16T04:48:25;17.50;99.90
2024;DHT22;1016;48.770;9.154;2022-10-16T04:50:50;17.50;99.90
2024;DHT22;1016;48.770;9.154;2022-10-16T04:53:16;17.50;99.90
2024;DHT22;1016;48.770;9.154;2022-10-16T04:55:42;17.50;99.90
2024;DHT22;1016;48.770;9.154;2022-10-16T04:58:07;17.50;99.90
2024;DHT22;1016;48.770;9.154;2022-10-16T05:00:33;17.50;99.90
2024;DHT22;1016;48.770;9.154;2022-10-16T05:02:59;17.60;99.90
2024;DHT22;1016;48.770;9.154;2022-10-16T05:05:27;17.50;99.90
2024;DHT22;1016;48.770;9.154;2022-10-16T05:07:53;17.60;99.90
2024;DHT22;1016;48.770;9.154;2022-10-16T05:10:19;17.50;99.90
2024;DHT22;1016;48.770;9.154;2022-10-16T05:12:45;17.50;99.90
2024;DHT22;1016;48.770;9.154;2022-10-16T05:15:11;17.50;99.90
2024;DHT22;1016;48.770;9.154;2022-10-16T05:17:36;17.50;99.90
2024;DHT22;1016;48.770;9.154;2022-10-16T05:20:02;17.50;99.90
2024;DHT22;1016;48.770;9.154;2022-10-16T05:22:28;17.50;99.90
2024;DHT22;1016;48.770;9.154;2022-10-16T05:24:54;17.50;99.90
2024;DHT22;1016;48.770;9.154;2022-10-16T05:27:20;17.50;99.90
2024;DHT22;1016;48.770;9.154;2022-10-16T05:29:46;17.50;99.90
2024;DHT22;1016;48.770;9.154;2022-10-16T05:32:13;17.50;99.90
2024;DHT22;1016;48.770;9.154;2022-10-16T05:34:38;17.50;99.90
2024;DHT22;1016;48.770;9.154;2022-10-16T05:37:04;17.50;99.90
2024;DHT22;1016;48.770;9.154;2022-10-16T05:39:29;17.50;99.90
2024;DHT22;1016;48.770;9.154;2022-10-16T05:41:55;17.50;99.90
2024;DHT22;1016;48.770;9.154;2022-10-16T05:44:20;17.50;99.90
2024;DHT22;1016;48.770;9.154;2022-10-16T05:46:46;17.50;99.90
2024;DHT22;1016;48.770;9.154;2022-10-16T05:49:12;17.50;99.90
2024;DHT22;1016;48.770;9.154;2022-10-16T05:51:37;17.50;99.90
2024;DHT22;1016;48.770;9.154;2022-10-16T05:54:03;17.50;99.90
2024;DHT22;1016;48.770;9.154;2022-10-16T05:56:29;17.50;99.90
2024;DHT22;1016;48.770;9.154;2022-10-16T05:58:54;17.50;99.90
2024;DHT22;1016;48.770;9.154;2022-10-16T06:01:20;17.50;99.90
2024;DHT22;1016;48.770;9.154;2022-10-16T06:03:50;17.40;99.90
2024;DHT22;1016;48.770;9.154;2022-10-16T06:06:18;17.40;99.90
2024;DHT22;1016;48.770;9.154;2022-10-16T06:08:46;17.50;99.90
2024;DHT22;1016;48.770;9.154;2022-10-16T06:11:14;17.50;99.90
2024;DHT22;1016;48.770;9.154;2022-10-16T06:13:40;17.50;99.90
2024;DHT22;1016;48.770;9.154;2022-10-16T06:16:11;17.50;99.90
2024;DHT22;1016;48.770;9.154;2022-10-16T06:18:37;17.40;99.90
2024;DHT22;1016;48.770;9.154;2022-10-16T06:21:11;17.50;99.90
2024;DHT22;1016;48.770;9.154;2022-10-16T06:23:37;17.50;99.90
2024;DHT22;1016;48.770;9.154;2022-10-16T06:26:07;17.50;99.90
2024;DHT22;1016;48.770;9.154;2022-10-16T06:28:33;17.50;99.90
2024;DHT22;1016;48.770;9.154;2022-10-16T06:31:00;17.50;99.90
2024;DHT22;1016;48.770;9.154;2022-10-16T06:33:26;17.60;99.90
2024;DHT22;1016;48.770;9.154;2022-10-16T06:35:51;17.60;99.90
2024;DHT22;1016;48.770;9.154;2022-10-16T06:38:17;17.60;99.90
2024;DHT22;1016;48.770;9.154;2022-10-16T06:40:42;17.60;99.90
2024;DHT22;1016;48.770;9.154;2022-10-16T06:43:08;17.50;99.90
2024;DHT22;1016;48.770;9.154;2022-10-16T06:45:33;17.60;99.90
2024;DHT22;1016;48.770;9.154;2022-10-16T06:47:59;17.60;99.90
2024;DHT22;1016;48.770;9.154;2022-10-16T06:50:24;17.60;99.90
2024;DHT22;1016;48.770;9.154;2022-10-16T06:52:50;17.70;99.90
2024;DHT22;1016;48.770;9.154;2022-10-16T06:55:15;17.60;99.90
2024;DHT22;1016;48.770;9.154;2022-10-16T06:57:42;17.60;99.90
2024;DHT22;1016;48.770;9.154;2022-10-16T07:00:08;17.70;99.90
2024;DHT22;1016;48.770;9.154;2022-10-16T07:02:34;17.70;99.90
2024;DHT22;1016;48.770;9.154;2022-10-16T07:04:59;17.70;99.90
2024;DHT22;1016;48.770;9.154;2022-10-16T07:07:24;17.70;99.90
2024;DHT22;1016;48.770;9.154;2022-10-16T07:09:52;17.70;99.90
2024;DHT22;1016;48.770;9.154;2022-10-16T07:12:17;17.70;99.90
2024;DHT22;1016;48.770;9.154;2022-10-16T07:14:43;17.70;99.90
2024;DHT22;1016;48.770;9.154;2022-10-16T07:17:08;17.80;99.90
2024;DHT22;1016;48.770;9.154;2022-10-16T07:19:34;17.80;99.90
2024;DHT22;1016;48.770;9.154;2022-10-16T07:21:59;17.80;99.90
2024;DHT22;1016;48.770;9.154;2022-10-16T07:24:25;17.90;99.90
2024;DHT22;1016;48.770;9.154;2022-10-16T07:26:50;17.90;99.90
2024;DHT22;1016;48.770;9.154;2022-10-16T07:29:18;17.90;99.90
2024;DHT22;1016;48.770;9.154;2022-10-16T07:31:44;17.90;99.90
2024;DHT22;1016;48.770;9.154;2022-10-16T07:34:12;17.90;99.90
2024;DHT22;1016;48.770;9.154;2022-10-16T07:36:38;17.90;99.90
2024;DHT22;1016;48.770;9.154;2022-10-16T07:39:04;17.90;99.90
2024;DHT22;1016;48.770;9.154;2022-10-16T07:41:30;18.00;99.90
2024;DHT22;1016;48.770;9.154;2022-10-16T07:43:57;17.90;99.90
2024;DHT22;1016;48.770;9.154;2022-10-16T07:46:25;17.90;99.90
2024;DHT22;1016;48.770;9.154;2022-10-16T07:48:51;18.00;99.90
2024;DHT22;1016;48.770;9.154;2022-10-16T07:51:21;18.00;99.90
2024;DHT22;1016;48.770;9.154;2022-10-16T07:53:48;18.00;99.90
2024;DHT22;1016;48.770;9.154;2022-10-16T07:56:15;18.10;99.90
2024;DHT22;1016;48.770;9.154;2022-10-16T07:58:41;18.10;99.90
2024;DHT22;1016;48.770;9.154;2022-10-16T08:01:09;18.10;99.90
2024;DHT22;1016;48.770;9.154;2022-10-16T08:03:35;18.10;99.90
2024;DHT22;1016;48.770;9.154;2022-10-16T08:06:02;18.20;99.90
2024;DHT22;1016;48.770;9.154;2022-10-16T08:08:28;18.20;99.90
2024;DHT22;1016;48.770;9.154;2022-10-16T08:10:53;18.20;99.90
2024;DHT22;1016;48.770;9.154;2022-10-16T08:13:19;18.20;99.90
2024;DHT22;1016;48.770;9.154;2022-10-16T08:15:45;18.20;99.90
2024;DHT22;1016;48.770;9.154;2022-10-16T08:18:12;18.30;99.90
2024;DHT22;1016;48.770;9.154;2022-10-16T08:20:39;18.30;99.90
2024;DHT22;1016;48.770;9.154;2022-10-16T08:23:05;18.30;99.90
2024;DHT22;1016;48.770;9.154;2022-10-16T08:25:30;18.40;99.90
2024;DHT22;1016;48.770;9.154;2022-10-16T08:27:56;18.40;99.90
2024;DHT22;1016;48.770;9.154;2022-10-16T08:30:23;18.50;99.90
2024;DHT22;1016;48.770;9.154;2022-10-16T08:32:49;18.50;99.90
2024;DHT22;1016;48.770;9.154;2022-10-16T08:35:15;18.60;99.90
2024;DHT22;1016;48.770;9.154;2022-10-16T08:37:42;18.60;99.90
2024;DHT22;1016;48.770;9.154;2022-10-16T08:40:20;18.60;99.90
2024;DHT22;1016;48.770;9.154;2022-10-16T08:50:44;18.70;99.90
2024;DHT22;1016;48.770;9.154;2022-10-16T08:53:16;18.70;99.90
2024;DHT22;1016;48.770;9.154;2022-10-16T08:55:48;18.70;99.90
2024;DHT22;1016;48.770;9.154;2022-10-16T08:58:16;18.70;99.90
2024;DHT22;1016;48.770;9.154;2022-10-16T09:00:56;18.70;99.90
2024;DHT22;1016;48.770;9.154;2022-10-16T09:12:19;18.90;99.90
2024;DHT22;1016;48.770;9.154;2022-10-16T09:20:49;19.00;99.90
2024;DHT22;1016;48.770;9.154;2022-10-16T09:25:45;19.10;99.90
2024;DHT22;1016;48.770;9.154;2022-10-16T09:28:12;19.20;99.90
2024;DHT22;1016;48.770;9.154;2022-10-16T09:30:38;19.20;99.90
2024;DHT22;1016;48.770;9.154;2022-10-16T09:33:05;19.20;99.90
2024;DHT22;1016;48.770;9.154;2022-10-16T09:35:43;19.10;99.90
2024;DHT22;1016;48.770;9.154;2022-10-16T09:38:23;19.30;99.90
2024;DHT22;1016;48.770;9.154;2022-10-16T09:40:49;19.30;99.90
2024;DHT22;1016;48.770;9.154;2022-10-16T09:43:35;19.30;99.90
2024;DHT22;1016;48.770;9.154;2022-10-16T09:46:07;19.30;99.90
2024;DHT22;1016;48.770;9.154;2022-10-16T09:48:48;19.30;99.90
2024;DHT22;1016;48.770;9.154;2022-10-16T09:51:23;19.30;99.90
2024;DHT22;1016;48.770;9.154;2022-10-16T09:53:55;19.40;99.90
2024;DHT22;1016;48.770;9.154;2022-10-16T09:56:23;19.50;99.90
2024;DHT22;1016;48.770;9.154;2022-10-16T09:58:55;19.50;99.90
2024;DHT22;1016;48.770;9.154;2022-10-16T10:01:22;19.60;99.90
2024;DHT22;1016;48.770;9.154;2022-10-16T10:03:49;19.60;99.90
2024;DHT22;1016;48.770;9.154;2022-10-16T10:06:26;19.70;99.90
2024;DHT22;1016;48.770;9.154;2022-10-16T10:09:02;19.70;99.90
2024;DHT22;1016;48.770;9.154;2022-10-16T10:14:41;19.80;99.90
2024;DHT22;1016;48.770;9.154;2022-10-16T10:17:25;19.90;99.90
2024;DHT22;1016;48.770;9.154;2022-10-16T10:19:57;19.90;99.90
2024;DHT22;1016;48.770;9.154;2022-10-16T10:22:43;20.00;99.90
2024;DHT22;1016;48.770;9.154;2022-10-16T10:30:59;20.10;99.90
2024;DHT22;1016;48.770;9.154;2022-10-16T10:36:38;20.20;99.90
2024;DHT22;1016;48.770;9.154;2022-10-16T10:39:17;20.40;99.90
2024;DHT22;1016;48.770;9.154;2022-10-16T10:46:56;20.50;99.90
2024;DHT22;1016;48.770;9.154;2022-10-16T10:49:29;20.60;99.90
2024;DHT22;1016;48.770;9.154;2022-10-16T10:57:53;20.80;99.90
2024;DHT22;1016;48.770;9.154;2022-10-16T11:03:27;20.90;99.90
2024;DHT22;1016;48.770;9.154;2022-10-16T11:08:51;21.00;99.90
2024;DHT22;1016;48.770;9.154;2022-10-16T11:11:41;21.10;99.90
2024;DHT22;1016;48.770;9.154;2022-10-16T11:17:27;21.20;99.90
2024;DHT22;1016;48.770;9.154;2022-10-16T11:19:45;21.20;99.90
2024;DHT22;1016;48.770;9.154;2022-10-16T11:22:28;21.30;99.90
2024;DHT22;1016;48.770;9.154;2022-10-16T11:25:27;21.50;99.90
2024;DHT22;1016;48.770;9.154;2022-10-16T11:28:16;21.60;99.90
2024;DHT22;1016;48.770;9.154;2022-10-16T11:36:12;21.70;99.90
2024;DHT22;1016;48.770;9.154;2022-10-16T11:39:00;21.70;99.90
2024;DHT22;1016;48.770;9.154;2022-10-16T11:41:35;21.80;99.90
2024;DHT22;1016;48.770;9.154;2022-10-16T11:47:01;21.80;99.90
2024;DHT22;1016;48.770;9.154;2022-10-16T11:49:32;21.90;99.90
2024;DHT22;1016;48.770;9.154;2022-10-16T11:54:49;21.90;99.90
2024;DHT22;1016;48.770;9.154;2022-10-16T11:57:50;22.00;99.90
2024;DHT22;1016;48.770;9.154;2022-10-16T12:00:23;22.00;99.90
2024;DHT22;1016;48.770;9.154;2022-10-16T12:08:14;22.10;99.90
2024;DHT22;1016;48.770;9.154;2022-10-16T12:10:45;22.10;99.90
2024;DHT22;1016;48.770;9.154;2022-10-16T12:13:46;22.20;99.90
2024;DHT22;1016;48.770;9.154;2022-10-16T12:18:40;22.30;99.90
2024;DHT22;1016;48.770;9.154;2022-10-16T12:21:06;22.30;99.90
2024;DHT22;1016;48.770;9.154;2022-10-16T12:23:56;22.40;99.90
2024;DHT22;1016;48.770;9.154;2022-10-16T12:26:32;22.50;99.90
2024;DHT22;1016;48.770;9.154;2022-10-16T12:31:46;22.80;99.90
2024;DHT22;1016;48.770;9.154;2022-10-16T12:34:41;22.80;99.90
2024;DHT22;1016;48.770;9.154;2022-10-16T12:37:23;22.80;99.90
2024;DHT22;1016;48.770;9.154;2022-10-16T12:39:50;22.90;99.90
2024;DHT22;1016;48.770;9.154;2022-10-16T12:42:33;22.90;99.90
2024;DHT22;1016;48.770;9.154;2022-10-16T12:45:00;23.00;99.90
2024;DHT22;1016;48.770;9.154;2022-10-16T12:49:57;23.10;99.90
2024;DHT22;1016;48.770;9.154;2022-10-16T12:54:56;23.10;99.90
2024;DHT22;1016;48.770;9.154;2022-10-16T13:01:02;22.90;99.90
2024;DHT22;1016;48.770;9.154;2022-10-16T13:06:23;22.70;99.90
2024;DHT22;1016;48.770;9.154;2022-10-16T13:09:16;22.50;99.90
2024;DHT22;1016;48.770;9.154;2022-10-16T13:17:30;22.40;99.90
2024;DHT22;1016;48.770;9.154;2022-10-16T13:20:21;22.30;99.90
2024;DHT22;1016;48.770;9.154;2022-10-16T13:28:20;22.30;99.90
2024;DHT22;1016;48.770;9.154;2022-10-16T13:30:54;22.30;99.90
2024;DHT22;1016;48.770;9.154;2022-10-16T13:33:41;22.20;99.90
2024;DHT22;1016;48.770;9.154;2022-10-16T13:36:29;22.10;99.90
2024;DHT22;1016;48.770;9.154;2022-10-16T13:39:25;22.10;99.90
2024;DHT22;1016;48.770;9.154;2022-10-16T13:42:04;22.10;99.90
2024;DHT22;1016;48.770;9.154;2022-10-16T13:44:36;22.10;99.90
2024;DHT22;1016;48.770;9.154;2022-10-16T13:47:04;22.00;99.90
2024;DHT22;1016;48.770;9.154;2022-10-16T13:49:29;22.00;99.90
2024;DHT22;1016;48.770;9.154;2022-10-16T13:51:59;22.00;99.90
2024;DHT22;1016;48.770;9.154;2022-10-16T13:54:26;21.90;99.90
2024;DHT22;1016;48.770;9.154;2022-10-16T13:56:52;22.00;99.90
2024;DHT22;1016;48.770;9.154;2022-10-16T13:59:33;22.00;99.90
2024;DHT22;1016;48.770;9.154;2022-10-16T14:02:00;22.00;99.90
2024;DHT22;1016;48.770;9.154;2022-10-16T14:04:32;22.00;99.90
2024;DHT22;1016;48.770;9.154;2022-10-16T14:06:58;22.00;99.90
2024;DHT22;1016;48.770;9.154;2022-10-16T14:09:28;22.00;99.90
2024;DHT22;1016;48.770;9.154;2022-10-16T14:12:01;21.80;99.90
2024;DHT22;1016;48.770;9.154;2022-10-16T14:14:34;21.70;99.90
2024;DHT22;1016;48.770;9.154;2022-10-16T14:17:02;21.70;99.90
2024;DHT22;1016;48.770;9.154;2022-10-16T14:19:29;21.60;99.90
2024;DHT22;1016;48.770;9.154;2022-10-16T14:21:56;21.60;99.90
2024;DHT22;1016;48.770;9.154;2022-10-16T14:24:33;21.50;99.90
2024;DHT22;1016;48.770;9.154;2022-10-16T14:27:00;21.50;99.90
2024;DHT22;1016;48.770;9.154;2022-10-16T14:29:28;21.50;99.90
2024;DHT22;1016;48.770;9.154;2022-10-16T14:31:57;21.40;99.90
2024;DHT22;1016;48.770;9.154;2022-10-16T14:37:00;21.40;99.90
2024;DHT22;1016;48.770;9.154;2022-10-16T14:39:27;21.40;99.90
2024;DHT22;1016;48.770;9.154;2022-10-16T14:41:56;21.40;99.90
2024;DHT22;1016;48.770;9.154;2022-10-16T14:44:28;21.40;99.90
2024;DHT22;1016;48.770;9.154;2022-10-16T14:46:55;21.30;99.90
2024;DHT22;1016;48.770;9.154;2022-10-16T14:49:21;21.30;99.90
2024;DHT22;1016;48.770;9.154;2022-10-16T14:51:47;21.30;99.90
2024;DHT22;1016;48.770;9.154;2022-10-16T14:54:17;21.30;99.90
2024;DHT22;1016;48.770;9.154;2022-10-16T14:59:17;21.20;99.90
2024;DHT22;1016;48.770;9.154;2022-10-16T15:01:44;21.20;99.90
2024;DHT22;1016;48.770;9.154;2022-10-16T15:04:11;21.20;99.90
2024;DHT22;1016;48.770;9.154;2022-10-16T15:06:37;21.20;99.90
2024;DHT22;1016;48.770;9.154;2022-10-16T15:09:03;21.20;99.90
2024;DHT22;1016;48.770;9.154;2022-10-16T15:11:31;21.10;99.90
2024;DHT22;1016;48.770;9.154;2022-10-16T15:13:57;21.10;99.90
2024;DHT22;1016;48.770;9.154;2022-10-16T15:16:23;21.10;99.90
2024;DHT22;1016;48.770;9.154;2022-10-16T15:18:48;21.00;99.90
2024;DHT22;1016;48.770;9.154;2022-10-16T15:21:22;21.00;99.90
2024;DHT22;1016;48.770;9.154;2022-10-16T15:23:49;21.00;99.90
2024;DHT22;1016;48.770;9.154;2022-10-16T15:26:16;20.90;99.90
2024;DHT22;1016;48.770;9.154;2022-10-16T15:28:41;20.80;99.90
2024;DHT22;1016;48.770;9.154;2022-10-16T15:31:07;20.80;99.90
2024;DHT22;1016;48.770;9.154;2022-10-16T15:33:33;20.70;99.90
2024;DHT22;1016;48.770;9.154;2022-10-16T15:36:00;20.70;99.90
2024;DHT22;1016;48.770;9.154;2022-10-16T15:38:26;20.70;99.90
2024;DHT22;1016;48.770;9.154;2022-10-16T15:40:52;20.60;99.90
2024;DHT22;1016;48.770;9.154;2022-10-16T15:43:18;20.60;99.90
2024;DHT22;1016;48.770;9.154;2022-10-16T15:45:44;20.50;99.90
2024;DHT22;1016;48.770;9.154;2022-10-16T15:48:13;20.50;99.90
2024;DHT22;1016;48.770;9.154;2022-10-16T15:50:39;20.40;99.90
2024;DHT22;1016;48.770;9.154;2022-10-16T15:53:05;20.40;99.90
2024;DHT22;1016;48.770;9.154;2022-10-16T15:55:31;20.30;99.90
2024;DHT22;1016;48.770;9.154;2022-10-16T15:57:56;20.30;99.90
2024;DHT22;1016;48.770;9.154;2022-10-16T16:00:22;20.20;99.90
2024;DHT22;1016;48.770;9.154;2022-10-16T16:02:51;20.20;99.90
2024;DHT22;1016;48.770;9.154;2022-10-16T16:05:18;20.20;99.90
2024;DHT22;1016;48.770;9.154;2022-10-16T16:07:44;20.10;99.90
2024;DHT22;1016;48.770;9.154;2022-10-16T16:10:11;20.10;99.90
2024;DHT22;1016;48.770;9.154;2022-10-16T16:12:37;20.00;99.90
2024;DHT22;1016;48.770;9.154;2022-10-16T16:15:06;20.00;99.90
2024;DHT22;1016;48.770;9.154;2022-10-16T16:17:33;19.90;99.90
2024;DHT22;1016;48.770;9.154;2022-10-16T16:19:59;19.90;99.90
2024;DHT22;1016;48.770;9.154;2022-10-16T16:22:25;19.80;99.90
2024;DHT22;1016;48.770;9.154;2022-10-16T16:24:50;19.70;99.90
2024;DHT22;1016;48.770;9.154;2022-10-16T16:27:16;19.70;99.90
2024;DHT22;1016;48.770;9.154;2022-10-16T16:29:42;19.60;99.90
2024;DHT22;1016;48.770;9.154;2022-10-16T16:32:07;19.60;99.90
2024;DHT22;1016;48.770;9.154;2022-10-16T16:34:33;19.50;99.90
2024;DHT22;1016;48.770;9.154;2022-10-16T16:36:58;19.50;99.90
2024;DHT22;1016;48.770;9.154;2022-10-16T16:39:24;19.50;99.90
2024;DHT22;1016;48.770;9.154;2022-10-16T16:41:50;19.40;99.90
2024;DHT22;1016;48.770;9.154;2022-10-16T16:44:16;19.40;99.90
2024;DHT22;1016;48.770;9.154;2022-10-16T16:46:42;19.20;99.90
2024;DHT22;1016;48.770;9.154;2022-10-16T16:49:10;19.30;99.90
2024;DHT22;1016;48.770;9.154;2022-10-16T16:51:36;19.30;99.90
2024;DHT22;1016;48.770;9.154;2022-10-16T16:54:02;19.20;99.90
2024;DHT22;1016;48.770;9.154;2022-10-16T16:56:27;19.20;99.90
2024;DHT22;1016;48.770;9.154;2022-10-16T16:58:55;19.20;99.90
2024;DHT22;1016;48.770;9.154;2022-10-16T17:01:21;19.10;99.90
2024;DHT22;1016;48.770;9.154;2022-10-16T17:03:48;19.10;99.90
2024;DHT22;1016;48.770;9.154;2022-10-16T17:06:15;19.10;99.90
2024;DHT22;1016;48.770;9.154;2022-10-16T17:08:41;19.00;99.90
2024;DHT22;1016;48.770;9.154;2022-10-16T17:11:13;19.00;99.90
2024;DHT22;1016;48.770;9.154;2022-10-16T17:13:39;19.00;99.90
2024;DHT22;1016;48.770;9.154;2022-10-16T17:16:06;19.00;99.90
2024;DHT22;1016;48.770;9.154;2022-10-16T17:18:32;19.00;99.90
2024;DHT22;1016;48.770;9.154;2022-10-16T17:21:04;18.90;99.90
2024;DHT22;1016;48.770;9.154;2022-10-16T17:23:30;18.90;99.90
2024;DHT22;1016;48.770;9.154;2022-10-16T17:25:56;18.90;99.90
2024;DHT22;1016;48.770;9.154;2022-10-16T17:28:21;18.80;99.90
2024;DHT22;1016;48.770;9.154;2022-10-16T17:30:47;18.80;99.90
2024;DHT22;1016;48.770;9.154;2022-10-16T17:33:13;18.80;99.90
2024;DHT22;1016;48.770;9.154;2022-10-16T17:35:44;18.70;99.90
2024;DHT22;1016;48.770;9.154;2022-10-16T17:38:10;18.70;99.90
2024;DHT22;1016;48.770;9.154;2022-10-16T17:40:37;18.70;99.90
2024;DHT22;1016;48.770;9.154;2022-10-16T17:43:03;18.70;99.90
2024;DHT22;1016;48.770;9.154;2022-10-16T17:45:29;18.60;99.90
2024;DHT22;1016;48.770;9.154;2022-10-16T17:47:55;18.60;99.90
2024;DHT22;1016;48.770;9.154;2022-10-16T17:50:22;18.60;99.90
2024;DHT22;1016;48.770;9.154;2022-10-16T17:52:47;18.50;99.90
2024;DHT22;1016;48.770;9.154;2022-10-16T17:55:13;18.50;99.90
2024;DHT22;1016;48.770;9.154;2022-10-16T17:57:38;18.50;99.90
2024;DHT22;1016;48.770;9.154;2022-10-16T18:00:05;18.40;99.90
2024;DHT22;1016;48.770;9.154;2022-10-16T18:02:31;18.40;99.90
2024;DHT22;1016;48.770;9.154;2022-10-16T18:04:57;18.40;99.90
2024;DHT22;1016;48.770;9.154;2022-10-16T18:07:22;18.40;99.90
2024;DHT22;1016;48.770;9.154;2022-10-16T18:09:48;18.30;99.90
2024;DHT22;1016;48.770;9.154;2022-10-16T18:12:14;18.30;99.90